CYDC

Princeton Airport

Town of Princeton, British Columbia, Canada
METAR CYDC 240100Z 31003KT 240V350 20SM FEW063 SCT074 SCT270 SCT290 12/04 A3009 RMK CU2AC1CI1CC1 CI TR LAST STFD OBS/NEXT 24 1300UTC SLP197
Observed Flight Rules
Sep-24 @ 01:00 UTC (11 hours ago) Visual Flight Rules
Wind Visibility Clouds
310° at 3 knots 20 miles
  • Few at 6,300' AGL
  • Scattered at 7,400' AGL
  • Scattered at 27,000' AGL
  • Scattered at 29,000' AGL
Temperatures Readings
Current 12°C / 54°F
Dewpoint 4°C / 39°F
Humidity 58%
Altimeter 30.09" Hg
Pressure 1019.7 hPa
Elevation 700
METAR CYDC 240100Z 31003KT 240V350 20SM FEW063 SCT074 SCT270 SCT290 12/04 A3009 RMK CU2AC1CI1CC1 CI TR LAST STFD OBS/NEXT 24 1300UTC SLP197
Observed Flight Rules
Sep-24 @ 01:00 UTC
(11 hours ago)
VFR
Wind Visibility
310° at 3 knots 20 miles
Clouds
  • Few at 6,300' AGL
  • Scattered at 7,400' AGL
  • Scattered at 27,000' AGL
  • Scattered at 29,000' AGL
Temperature Dewpoint
12°C / 54°F 4°C / 39°F
Humidity Altimeter Pressure
58% 30.09" Hg 1019.7 hPa